Elkhorn, Missouri
Current Conditions -  °F | °C
As of 10:35 PM on Wednesday 26 Nov 2014 (Local Time) from KFYG Reporting Station
Light Snow Light Snow  
Wind Chill: 26°   Ceiling: 900
Heat Index: 34°   Visibility: 6mi
Dew Point: 32°   Wind: 9mph
Humidity: 93%   Direction: 310°NW
Pressure: 30.17"   Gusts: NA
Location:  38.7835°N, 91.2441°W
Report Text: KFYG 270435Z AUTO 31008KT 6SM -SN OVC009 01/00 A3017 RMK AO2
Loading
Personal Weather Stations






























Interactive Weather Map New forecast layout! Learn more

10-Day Weather Forecast

Advertisements
Track Severe Weather on mobile